createdAt,value
2019-01-10T00:02:27.650Z,2.45
2019-01-10T00:04:54.724Z,5.92
2019-01-10T00:07:22.090Z,2.92
2019-01-10T00:09:49.341Z,4.55
2019-01-10T00:12:17.606Z,5.80
2019-01-10T00:14:44.843Z,3.85
2019-01-10T00:17:13.759Z,3.72
2019-01-10T00:19:41.154Z,12.07
2019-01-10T00:22:09.754Z,3.52
2019-01-10T00:24:37.233Z,2.45
2019-01-10T00:27:04.874Z,4.60
2019-01-10T00:29:31.949Z,3.67
2019-01-10T00:31:59.894Z,2.10
2019-01-10T00:34:28.261Z,4.15
2019-01-10T00:36:56.467Z,4.15
2019-01-10T00:39:23.770Z,2.67
2019-01-10T00:41:50.923Z,6.97
2019-01-10T00:44:17.995Z,6.20
2019-01-10T00:46:45.204Z,1.75
2019-01-10T00:49:13.074Z,6.47
2019-01-10T00:51:40.137Z,4.42
2019-01-10T00:54:07.399Z,3.70
2019-01-10T00:56:34.861Z,2.77
2019-01-10T00:59:02.088Z,0.70
2019-01-10T01:01:29.299Z,6.60
2019-01-10T01:03:56.748Z,3.30
2019-01-10T01:06:25.615Z,2.27
2019-01-10T01:08:53.272Z,1.95
2019-01-10T01:11:21.689Z,3.20
2019-01-10T01:13:49.794Z,3.45
2019-01-10T01:16:18.030Z,6.33
2019-01-10T01:18:45.094Z,4.35
2019-01-10T01:21:12.357Z,1.45
2019-01-10T01:23:39.502Z,3.70
2019-01-10T01:26:06.607Z,8.55
2019-01-10T01:28:34.029Z,1.72
2019-01-10T01:31:01.138Z,3.40
2019-01-10T01:33:28.228Z,3.45
2019-01-10T01:35:55.291Z,3.75
2019-01-10T01:38:22.355Z,3.80
2019-01-10T01:40:51.600Z,1.00
2019-01-10T01:43:18.666Z,6.70
2019-01-10T01:45:45.736Z,2.67
2019-01-10T01:48:13.183Z,6.70
2019-01-10T01:50:42.040Z,2.80
2019-01-10T01:53:09.469Z,4.90
2019-01-10T01:55:38.382Z,8.78
2019-01-10T01:58:05.900Z,0.80
2019-01-10T02:00:33.250Z,4.80
2019-01-10T02:03:01.526Z,6.08
2019-01-10T02:05:29.185Z,4.08
2019-01-10T02:07:56.541Z,4.00
2019-01-10T02:10:25.957Z,3.75
2019-01-10T02:12:54.381Z,3.95
2019-01-10T02:15:22.538Z,4.50
2019-01-10T02:17:49.686Z,8.00
2019-01-10T02:20:17.940Z,2.72
2019-01-10T02:22:45.198Z,2.77
2019-01-10T02:25:13.190Z,4.45
2019-01-10T02:27:40.373Z,3.05
2019-01-10T02:30:13.563Z,3.52
2019-01-10T02:32:40.985Z,2.27
2019-01-10T02:35:08.096Z,4.83
2019-01-10T02:37:35.260Z,9.23
2019-01-10T02:40:02.471Z,3.00
2019-01-10T02:42:29.739Z,3.50
2019-01-10T02:44:56.876Z,1.65
2019-01-10T02:47:24.311Z,7.00
2019-01-10T02:49:51.387Z,1.95
2019-01-10T02:52:18.776Z,7.78
2019-01-10T02:54:45.859Z,3.20
2019-01-10T02:57:13.301Z,3.17
2019-01-10T02:59:40.556Z,1.35
2019-01-10T03:02:09.898Z,8.08
2019-01-10T03:04:36.965Z,2.22
2019-01-10T03:07:04.255Z,4.08
2019-01-10T03:09:32.301Z,9.90
2019-01-10T03:11:59.709Z,3.60
2019-01-10T03:14:26.929Z,3.52
2019-01-10T03:16:55.784Z,4.55
2019-01-10T03:19:24.175Z,2.87
2019-01-10T03:21:51.358Z,3.08
2019-01-10T03:24:18.421Z,8.23
2019-01-10T03:26:45.473Z,2.80
2019-01-10T03:29:12.665Z,8.53
2019-01-10T03:31:40.064Z,2.05
2019-01-10T03:34:07.118Z,6.42
2019-01-10T03:36:34.351Z,7.25
2019-01-10T03:39:06.439Z,2.60
2019-01-10T03:41:35.159Z,3.15
2019-01-10T03:44:02.331Z,1.12
2019-01-10T03:46:29.397Z,1.20
2019-01-10T03:48:56.579Z,1.67
2019-01-10T03:51:23.992Z,3.87
2019-01-10T03:53:53.087Z,1.85
2019-01-10T03:56:20.177Z,8.85
2019-01-10T03:58:47.233Z,2.22
2019-01-10T04:01:14.627Z,7.47
2019-01-10T04:03:41.689Z,2.45
2019-01-10T04:06:08.749Z,6.10
2019-01-10T04:08:36.365Z,6.97
2019-01-10T04:11:03.821Z,7.80
2019-01-10T04:13:32.678Z,3.12
2019-01-10T04:15:59.731Z,4.33
2019-01-10T04:18:28.187Z,2.45
2019-01-10T04:20:56.327Z,2.65
2019-01-10T04:23:24.602Z,1.95
2019-01-10T04:25:51.696Z,3.10
2019-01-10T04:28:18.745Z,4.10
2019-01-10T04:30:46.533Z,8.10
2019-01-10T04:33:14.048Z,7.20
2019-01-10T04:35:41.110Z,3.60
2019-01-10T04:38:08.614Z,6.83
2019-01-10T04:40:35.832Z,3.52
2019-01-10T04:43:03.982Z,3.27
2019-01-10T04:45:33.349Z,3.60
2019-01-10T04:48:00.434Z,3.65
2019-01-10T04:50:27.578Z,3.52
2019-01-10T04:52:54.629Z,3.15
2019-01-10T04:55:22.894Z,4.53
2019-01-10T04:57:53.176Z,5.83
2019-01-10T05:00:22.696Z,2.05
2019-01-10T05:02:49.888Z,3.10
2019-01-10T05:05:16.954Z,5.10
2019-01-10T05:07:44.344Z,3.45
2019-01-10T05:10:12.310Z,5.85
2019-01-10T05:12:41.751Z,3.65
2019-01-10T05:15:09.568Z,1.75
2019-01-10T05:17:38.989Z,6.65
2019-01-10T05:20:10.175Z,8.10
2019-01-10T05:22:37.610Z,3.90
2019-01-10T05:25:06.684Z,2.83
2019-01-10T05:27:34.793Z,5.55
2019-01-10T05:30:02.414Z,4.70
2019-01-10T05:32:29.747Z,1.90
2019-01-10T05:34:56.830Z,6.53
2019-01-10T05:37:26.621Z,4.00
2019-01-10T05:39:54.386Z,4.53
2019-01-10T05:42:22.870Z,9.13
2019-01-10T05:44:50.530Z,3.75
2019-01-10T05:47:18.548Z,1.77
2019-01-10T05:49:46.264Z,4.30
2019-01-10T05:52:13.691Z,3.12
2019-01-10T05:54:40.786Z,7.45
2019-01-10T05:57:07.866Z,7.28
2019-01-10T05:59:35.579Z,6.35
2019-01-10T06:02:02.685Z,11.50
2019-01-10T06:04:29.772Z,6.72
2019-01-10T06:06:57.215Z,8.48
2019-01-10T06:09:24.575Z,6.80
2019-01-10T06:11:51.684Z,8.38
2019-01-10T06:14:18.766Z,6.95
2019-01-10T06:16:45.870Z,6.12
2019-01-10T06:19:12.955Z,8.65
2019-01-10T06:21:40.049Z,6.40
2019-01-10T06:24:07.150Z,7.90
2019-01-10T06:26:34.286Z,9.33
2019-01-10T06:29:01.689Z,8.75
2019-01-10T06:31:30.878Z,8.58
2019-01-10T06:33:58.986Z,9.15
2019-01-10T06:36:26.415Z,13.50
2019-01-10T06:38:53.515Z,7.75
2019-01-10T06:41:20.640Z,9.00
2019-01-10T06:43:47.731Z,12.15
2019-01-10T06:46:16.906Z,10.72
2019-01-10T06:48:44.112Z,9.83
2019-01-10T06:51:11.207Z,11.85
2019-01-10T06:53:38.315Z,7.55
2019-01-10T06:56:05.425Z,5.60
2019-01-10T06:58:32.539Z,6.65
2019-01-10T07:00:59.801Z,7.42
2019-01-10T07:03:27.219Z,8.33
2019-01-10T07:05:56.117Z,8.35
2019-01-10T07:08:23.180Z,13.30
2019-01-10T07:10:50.355Z,10.58
2019-01-10T07:13:17.767Z,8.90
2019-01-10T07:15:44.819Z,9.95
2019-01-10T07:18:12.889Z,8.78
2019-01-10T07:20:40.581Z,8.75
2019-01-10T07:23:07.635Z,8.45
2019-01-10T07:25:38.352Z,11.55
2019-01-10T07:28:23.562Z,10.45
2019-01-10T07:30:51.940Z,9.65
2019-01-10T07:33:19.005Z,10.93
2019-01-10T07:35:51.772Z,10.53
2019-01-10T07:38:19.020Z,8.98
2019-01-10T07:40:47.476Z,13.62
2019-01-10T07:43:18.013Z,11.33
2019-01-10T07:45:45.052Z,12.53
2019-01-10T07:48:12.460Z,14.95
2019-01-10T07:50:39.822Z,18.70
2019-01-10T07:53:08.551Z,11.45
2019-01-10T07:55:37.905Z,9.45
2019-01-10T07:58:05.202Z,10.53
2019-01-10T08:00:33.104Z,8.53
2019-01-10T08:03:00.190Z,10.43
2019-01-10T08:05:27.555Z,12.23
2019-01-10T08:07:55.086Z,11.85
2019-01-10T08:10:22.540Z,14.68
2019-01-10T08:12:51.019Z,19.15
2019-01-10T08:15:19.937Z,14.85
2019-01-10T08:17:49.130Z,17.20
2019-01-10T08:20:16.416Z,11.28
2019-01-10T08:22:44.594Z,7.17
2019-01-10T08:25:11.776Z,9.75
2019-01-10T08:27:39.179Z,14.58
2019-01-10T08:30:11.036Z,25.82
2019-01-10T08:32:39.367Z,11.00
2019-01-10T08:35:07.239Z,13.50
2019-01-10T08:37:34.911Z,10.03
2019-01-10T08:40:02.099Z,12.55
2019-01-10T08:42:30.420Z,14.50
2019-01-10T08:44:58.140Z,12.25
2019-01-10T08:47:26.143Z,12.80
2019-01-10T08:49:54.424Z,13.40
2019-01-10T08:52:21.474Z,9.45
2019-01-10T08:54:51.759Z,12.43
2019-01-10T08:57:23.153Z,19.15
2019-01-10T08:59:51.341Z,17.35
2019-01-10T09:02:18.485Z,13.50
2019-01-10T09:04:45.664Z,10.00
2019-01-10T09:07:15.654Z,11.40
2019-01-10T09:09:43.006Z,12.95
2019-01-10T09:12:11.059Z,20.72
2019-01-10T09:14:38.749Z,9.43
2019-01-10T09:17:06.899Z,10.55
2019-01-10T09:19:34.314Z,12.78
2019-01-10T09:22:01.357Z,15.88
2019-01-10T09:24:29.509Z,9.58
2019-01-10T09:26:56.665Z,12.90
2019-01-10T09:29:23.778Z,15.58
2019-01-10T09:31:50.826Z,13.70
2019-01-10T09:34:24.624Z,11.70
2019-01-10T09:36:47.286Z,11.30
2019-01-10T09:39:14.379Z,11.95
2019-01-10T09:41:41.437Z,18.95
2019-01-10T09:44:08.510Z,11.15
2019-01-10T09:46:35.857Z,9.88
2019-01-10T09:49:02.948Z,10.88
2019-01-10T09:51:29.997Z,8.13
2019-01-10T09:53:58.865Z,8.43
2019-01-10T09:56:26.337Z,11.15
2019-01-10T09:58:53.422Z,11.53
2019-01-10T10:01:20.496Z,8.88
2019-01-10T10:03:48.043Z,8.15
2019-01-10T10:06:16.299Z,12.35
2019-01-10T10:08:43.463Z,8.38
2019-01-10T10:11:10.527Z,10.65
2019-01-10T10:13:37.911Z,14.65
2019-01-10T10:16:05.377Z,9.15
2019-01-10T10:18:33.434Z,6.87
2019-01-10T10:21:00.507Z,11.65
2019-01-10T10:23:28.582Z,13.98
2019-01-10T10:25:55.657Z,8.37
2019-01-10T10:28:22.746Z,10.93
2019-01-10T10:30:50.139Z,14.40
2019-01-10T10:33:19.038Z,16.75
2019-01-10T10:35:47.297Z,9.73
2019-01-10T10:38:16.767Z,15.45
2019-01-10T10:40:44.211Z,12.80
2019-01-10T10:43:13.027Z,13.53
2019-01-10T10:45:40.899Z,16.65
2019-01-10T10:48:07.993Z,9.70
2019-01-10T10:50:36.851Z,14.35
2019-01-10T10:53:05.091Z,12.35
2019-01-10T10:55:32.200Z,13.30
2019-01-10T10:57:59.291Z,11.08
2019-01-10T11:00:29.779Z,11.33
2019-01-10T11:02:57.090Z,15.48
2019-01-10T11:05:24.696Z,11.80
2019-01-10T11:07:51.801Z,10.93
2019-01-10T11:10:18.894Z,17.02
2019-01-10T11:12:47.783Z,12.82
2019-01-10T11:15:18.273Z,11.68
2019-01-10T11:17:47.914Z,9.83
2019-01-10T11:20:17.576Z,15.08
2019-01-10T11:22:44.743Z,18.82
2019-01-10T11:25:15.345Z,9.93
2019-01-10T11:27:42.450Z,13.22
2019-01-10T11:30:12.149Z,8.35
2019-01-10T11:32:40.322Z,17.65
2019-01-10T11:35:07.420Z,14.98
2019-01-10T11:37:34.557Z,8.03
2019-01-10T11:40:03.987Z,7.22
2019-01-10T11:42:31.062Z,9.05
2019-01-10T11:44:58.437Z,9.55
2019-01-10T11:47:25.551Z,13.85
2019-01-10T11:49:52.632Z,11.83
2019-01-10T11:52:19.891Z,9.98
2019-01-10T11:54:49.960Z,12.18
2019-01-10T11:57:17.234Z,14.93
2019-01-10T11:59:44.379Z,19.92
2019-01-10T12:02:11.531Z,13.58
2019-01-10T12:04:39.480Z,13.13
2019-01-10T12:07:08.591Z,10.85
2019-01-10T12:09:36.642Z,16.23
2019-01-10T12:12:03.799Z,12.23
2019-01-10T12:14:32.067Z,15.80
2019-01-10T12:16:59.482Z,8.00
2019-01-10T12:19:26.545Z,15.93
2019-01-10T12:21:53.647Z,17.87
2019-01-10T12:24:20.694Z,11.35
2019-01-10T12:26:49.273Z,11.10
2019-01-10T12:29:17.935Z,11.38
2019-01-10T12:31:45.499Z,11.85
2019-01-10T12:34:13.875Z,12.60
2019-01-10T12:36:41.635Z,11.40
2019-01-10T12:39:10.427Z,13.72
2019-01-10T12:41:38.634Z,10.48
2019-01-10T12:44:09.540Z,11.20
2019-01-10T12:46:37.747Z,8.70
2019-01-10T12:49:07.831Z,12.37
2019-01-10T12:51:34.919Z,8.60
2019-01-10T12:54:01.987Z,9.00
2019-01-10T12:56:29.430Z,7.80
2019-01-10T12:58:56.786Z,7.85
2019-01-10T13:01:23.974Z,11.18
2019-01-10T13:03:53.138Z,9.45
2019-01-10T13:06:21.643Z,16.93
2019-01-10T13:08:48.704Z,9.75
2019-01-10T13:11:15.764Z,15.88
2019-01-10T13:13:44.557Z,9.00
2019-01-10T13:16:11.935Z,7.08
2019-01-10T13:18:39.286Z,8.25
2019-01-10T13:21:09.682Z,6.40
2019-01-10T13:23:37.346Z,9.50
2019-01-10T13:26:06.950Z,9.63
2019-01-10T13:28:34.614Z,16.25
2019-01-10T13:31:04.507Z,5.47
2019-01-10T13:33:31.619Z,7.80
2019-01-10T13:35:58.722Z,8.93
2019-01-10T13:38:26.118Z,5.70
2019-01-10T13:40:53.643Z,7.45
2019-01-10T13:43:20.801Z,8.98
2019-01-10T13:45:48.255Z,10.82
2019-01-10T13:48:15.419Z,8.88
2019-01-10T13:50:43.470Z,4.25
2019-01-10T13:53:12.051Z,6.22
2019-01-10T13:55:39.115Z,5.58
2019-01-10T13:58:07.987Z,7.33
2019-01-10T14:00:35.995Z,8.03
2019-01-10T14:03:03.110Z,4.50
2019-01-10T14:05:30.452Z,10.55
2019-01-10T14:07:57.654Z,9.48
2019-01-10T14:10:26.348Z,9.03
2019-01-10T14:12:54.740Z,13.15
2019-01-10T14:15:27.512Z,3.65
2019-01-10T14:17:54.560Z,7.10
2019-01-10T14:20:23.294Z,4.33
2019-01-10T14:22:50.410Z,3.58
2019-01-10T14:25:19.693Z,6.42
2019-01-10T14:27:48.565Z,13.58
2019-01-10T14:30:27.254Z,4.85
2019-01-10T14:32:54.332Z,3.40
2019-01-10T14:35:21.803Z,4.65
2019-01-10T14:37:49.381Z,4.87
2019-01-10T14:40:16.517Z,10.70
2019-01-10T14:42:49.452Z,7.92
2019-01-10T14:45:16.575Z,8.60
2019-01-10T14:47:45.808Z,3.00
2019-01-10T14:50:14.993Z,4.47
2019-01-10T14:52:43.503Z,5.40
2019-01-10T14:55:12.321Z,5.85
2019-01-10T14:57:39.898Z,5.85
2019-01-10T15:00:11.799Z,3.35
2019-01-10T15:02:39.271Z,6.20
2019-01-10T15:05:06.429Z,8.78
2019-01-10T15:07:33.954Z,6.20
2019-01-10T15:10:01.163Z,10.82
2019-01-10T15:12:28.327Z,6.47
2019-01-10T15:14:55.434Z,8.78
2019-01-10T15:17:22.774Z,7.35
2019-01-10T15:19:52.044Z,7.70
2019-01-10T15:22:19.847Z,8.63
2019-01-10T15:24:47.262Z,7.45
2019-01-10T15:27:15.300Z,9.83
2019-01-10T15:29:44.175Z,8.53
2019-01-10T15:32:11.591Z,7.47
2019-01-10T15:34:39.759Z,8.10
2019-01-10T15:37:09.010Z,8.80
2019-01-10T15:39:36.092Z,11.97
2019-01-10T15:42:05.103Z,5.30
2019-01-10T15:44:32.243Z,7.53
2019-01-10T15:46:59.331Z,15.23
2019-01-10T15:49:26.402Z,12.15
2019-01-10T15:51:53.516Z,7.97
2019-01-10T15:54:20.960Z,7.65
2019-01-10T15:56:48.422Z,4.60
2019-01-10T15:59:15.518Z,5.58
2019-01-10T16:01:42.560Z,9.30
2019-01-10T16:04:09.621Z,7.92
2019-01-10T16:06:40.978Z,8.58
2019-01-10T16:09:10.914Z,8.43
2019-01-10T16:11:37.977Z,7.92
2019-01-10T16:14:05.099Z,5.67
2019-01-10T16:16:32.478Z,9.75
2019-01-10T16:18:59.671Z,6.17
2019-01-10T16:21:27.081Z,8.98
2019-01-10T16:23:54.177Z,11.53
2019-01-10T16:26:21.287Z,7.05
2019-01-10T16:28:48.371Z,5.08
2019-01-10T16:31:16.486Z,8.03
2019-01-10T16:33:43.747Z,8.83
2019-01-10T16:36:10.901Z,6.87
2019-01-10T16:38:37.973Z,16.25
2019-01-10T16:41:05.027Z,12.73
2019-01-10T16:43:32.288Z,11.35
2019-01-10T16:46:01.436Z,14.13
2019-01-10T16:48:28.838Z,10.00
2019-01-10T16:50:55.897Z,6.90
2019-01-10T16:53:24.127Z,5.78
2019-01-10T16:55:51.203Z,7.97
2019-01-10T16:58:18.241Z,6.92
2019-01-10T17:00:45.305Z,6.78
2019-01-10T17:03:12.372Z,8.18
2019-01-10T17:05:39.438Z,6.67
2019-01-10T17:08:07.547Z,13.70
2019-01-10T17:10:34.608Z,8.10
2019-01-10T17:13:01.654Z,7.97
2019-01-10T17:15:28.786Z,12.47
2019-01-10T17:17:57.280Z,7.55
2019-01-10T17:20:25.720Z,8.28
2019-01-10T17:22:52.842Z,8.68
2019-01-10T17:25:21.264Z,11.03
2019-01-10T17:27:48.762Z,4.20
2019-01-10T17:30:22.250Z,9.88
2019-01-10T17:32:49.441Z,7.47
2019-01-10T17:35:18.555Z,5.42
2019-01-10T17:37:45.850Z,13.05
2019-01-10T17:40:14.994Z,7.85
2019-01-10T17:42:43.257Z,5.83
2019-01-10T17:45:15.204Z,5.60
2019-01-10T17:47:44.202Z,8.40
2019-01-10T17:50:14.730Z,5.25
2019-01-10T17:52:41.947Z,10.05
2019-01-10T17:55:09.402Z,10.78
2019-01-10T17:57:38.065Z,8.93
2019-01-10T18:00:08.854Z,5.97
2019-01-10T18:02:35.965Z,8.68
2019-01-10T18:05:04.119Z,6.78
2019-01-10T18:07:31.182Z,9.50
2019-01-10T18:09:58.246Z,8.30
2019-01-10T18:12:25.571Z,12.33
2019-01-10T18:14:53.025Z,13.38
2019-01-10T18:17:21.199Z,5.78
2019-01-10T18:19:48.407Z,4.40
2019-01-10T18:22:15.496Z,3.77
2019-01-10T18:24:42.663Z,7.30
2019-01-10T18:27:09.825Z,7.35
2019-01-10T18:29:37.739Z,6.40
2019-01-10T18:32:04.999Z,6.95
2019-01-10T18:34:32.685Z,5.03
2019-01-10T18:36:59.866Z,5.03
2019-01-10T18:39:27.052Z,7.33
2019-01-10T18:41:54.748Z,3.33
2019-01-10T18:44:22.203Z,5.87
2019-01-10T18:46:49.569Z,5.08
2019-01-10T18:49:18.431Z,4.62
2019-01-10T18:51:45.523Z,6.25
2019-01-10T18:54:12.793Z,5.62
2019-01-10T18:56:39.890Z,7.42
2019-01-10T18:59:06.957Z,9.35
2019-01-10T19:01:35.071Z,5.33
2019-01-10T19:04:02.340Z,4.03
2019-01-10T19:06:29.596Z,5.28
2019-01-10T19:08:58.037Z,8.60
2019-01-10T19:11:25.299Z,4.78
2019-01-10T19:13:52.870Z,4.40
2019-01-10T19:16:20.450Z,5.92
2019-01-10T19:18:50.282Z,4.97
2019-01-10T19:21:17.554Z,3.80
2019-01-10T19:23:45.173Z,6.87
2019-01-10T19:26:12.247Z,6.20
2019-01-10T19:28:39.485Z,3.70
2019-01-10T19:31:06.549Z,7.00
2019-01-10T19:33:34.637Z,4.15
2019-01-10T19:36:03.524Z,4.90
2019-01-10T19:38:32.017Z,4.45
2019-01-10T19:40:59.187Z,4.30
2019-01-10T19:43:26.373Z,5.70
2019-01-10T19:45:55.480Z,5.90
2019-01-10T19:48:23.945Z,5.72
2019-01-10T19:50:51.413Z,10.63
2019-01-10T19:53:19.790Z,4.15
2019-01-10T19:55:47.279Z,6.53
2019-01-10T19:58:14.469Z,4.30
2019-01-10T20:00:44.078Z,7.58
2019-01-10T20:03:11.261Z,7.53
2019-01-10T20:05:38.464Z,8.18
2019-01-10T20:08:05.581Z,5.78
2019-01-10T20:10:33.730Z,6.20
2019-01-10T20:13:02.594Z,8.28
2019-01-10T20:15:30.691Z,12.10
2019-01-10T20:17:58.257Z,7.97
2019-01-10T20:20:36.789Z,6.70
2019-01-10T20:23:06.693Z,6.47
2019-01-10T20:25:34.657Z,9.03
2019-01-10T20:28:03.446Z,13.08
2019-01-10T20:30:31.977Z,9.40
2019-01-10T20:33:00.744Z,7.47
2019-01-10T20:35:28.015Z,9.08
2019-01-10T20:37:58.702Z,7.35
2019-01-10T20:40:26.365Z,10.75
2019-01-10T20:42:54.096Z,8.90
2019-01-10T20:45:21.178Z,11.57
2019-01-10T20:47:49.563Z,8.05
2019-01-10T20:50:18.034Z,6.08
2019-01-10T20:52:45.393Z,12.05
2019-01-10T20:55:12.452Z,9.40
2019-01-10T20:57:41.120Z,9.70
2019-01-10T21:00:12.358Z,8.50
2019-01-10T21:02:39.500Z,8.38
2019-01-10T21:05:09.067Z,9.55
2019-01-10T21:07:36.135Z,8.38
2019-01-10T21:10:04.234Z,8.73
2019-01-10T21:12:31.728Z,14.87
2019-01-10T21:14:59.287Z,6.87
2019-01-10T21:17:26.352Z,8.35
2019-01-10T21:19:53.437Z,11.10
2019-01-10T21:22:20.484Z,8.05
2019-01-10T21:24:47.814Z,9.40
2019-01-10T21:27:18.111Z,8.55
2019-01-10T21:29:45.534Z,9.80
2019-01-10T21:32:12.591Z,8.40
2019-01-10T21:34:39.862Z,9.53
2019-01-10T21:37:07.190Z,10.65
2019-01-10T21:39:34.245Z,7.83
2019-01-10T21:42:01.427Z,7.22
2019-01-10T21:44:29.682Z,9.23
2019-01-10T21:46:57.017Z,6.72
2019-01-10T21:49:24.097Z,8.00
2019-01-10T21:51:51.357Z,8.63
2019-01-10T21:54:19.000Z,6.58
2019-01-10T21:56:46.685Z,11.22
2019-01-10T21:59:14.833Z,8.40
2019-01-10T22:01:41.909Z,8.95
2019-01-10T22:04:08.971Z,8.23
2019-01-10T22:06:36.021Z,7.83
2019-01-10T22:09:05.770Z,10.80
2019-01-10T22:11:33.923Z,8.75
2019-01-10T22:14:01.011Z,15.45
2019-01-10T22:16:28.758Z,11.65
2019-01-10T22:18:56.443Z,12.75
2019-01-10T22:21:23.486Z,13.13
2019-01-10T22:23:50.559Z,10.55
2019-01-10T22:26:17.616Z,11.45
2019-01-10T22:28:46.189Z,12.00
2019-01-10T22:31:14.346Z,11.80
2019-01-10T22:33:41.691Z,11.05
2019-01-10T22:36:08.742Z,10.58
2019-01-10T22:38:36.015Z,12.43
2019-01-10T22:41:04.444Z,11.30
2019-01-10T22:43:31.526Z,12.80
2019-01-10T22:45:59.054Z,15.50
2019-01-10T22:48:26.111Z,15.08
2019-01-10T22:50:53.766Z,12.88
2019-01-10T22:53:21.529Z,14.95
2019-01-10T22:55:48.992Z,12.18
2019-01-10T22:58:17.083Z,14.33
2019-01-10T23:01:37.433Z,14.50
2019-01-10T23:04:05.019Z,12.37
2019-01-10T23:06:32.080Z,13.15
2019-01-10T23:08:59.360Z,14.90
2019-01-10T23:11:26.802Z,16.12
2019-01-10T23:13:56.022Z,14.15
2019-01-10T23:16:23.633Z,17.42
2019-01-10T23:18:54.251Z,15.63
2019-01-10T23:21:19.715Z,15.93
2019-01-10T23:23:47.232Z,16.97
2019-01-10T23:26:16.710Z,15.90
2019-01-10T23:28:44.159Z,17.92
2019-01-10T23:31:15.238Z,17.70
2019-01-10T23:33:42.613Z,18.55
2019-01-10T23:36:09.670Z,20.52
2019-01-10T23:38:38.216Z,20.40
2019-01-10T23:41:05.570Z,21.33
2019-01-10T23:43:32.922Z,19.57
2019-01-10T23:46:01.207Z,21.95
2019-01-10T23:48:28.250Z,19.82
2019-01-10T23:50:56.625Z,20.75
2019-01-10T23:53:24.299Z,24.25
2019-01-10T23:55:53.389Z,23.30
2019-01-10T23:58:20.454Z,21.80
